sensor_id;sensor_type;location;lat;lon;timestamp;pressure;altitude;pressure_sealevel;temperature;humidity
36222;BME280;22266;52.340;4.962;2023-08-30T00:01:01;100800.16;;;16.16;65.98
36222;BME280;22266;52.340;4.962;2023-08-30T00:03:27;100795.34;;;16.18;66.32
36222;BME280;22266;52.340;4.962;2023-08-30T00:05:54;100804.06;;;16.20;66.13
36222;BME280;22266;52.340;4.962;2023-08-30T00:08:21;100795.09;;;16.19;65.81
36222;BME280;22266;52.340;4.962;2023-08-30T00:10:48;100785.88;;;16.20;65.82
36222;BME280;22266;52.340;4.962;2023-08-30T00:13:15;100775.88;;;16.21;66.14
36222;BME280;22266;52.340;4.962;2023-08-30T00:15:41;100781.66;;;16.24;66.22
36222;BME280;22266;52.340;4.962;2023-08-30T00:18:08;100777.06;;;16.25;66.08
36222;BME280;22266;52.340;4.962;2023-08-30T00:20:36;100779.28;;;16.28;66.36
36222;BME280;22266;52.340;4.962;2023-08-30T00:23:02;100769.03;;;16.30;66.33
36222;BME280;22266;52.340;4.962;2023-08-30T00:25:29;100773.03;;;16.27;66.32
36222;BME280;22266;52.340;4.962;2023-08-30T00:27:56;100764.88;;;16.27;66.78
36222;BME280;22266;52.340;4.962;2023-08-30T00:30:22;100767.84;;;16.26;67.16
36222;BME280;22266;52.340;4.962;2023-08-30T00:32:49;100765.13;;;16.26;66.88
36222;BME280;22266;52.340;4.962;2023-08-30T00:35:15;100755.34;;;16.25;67.41
36222;BME280;22266;52.340;4.962;2023-08-30T00:37:42;100754.97;;;16.21;67.26
36222;BME280;22266;52.340;4.962;2023-08-30T00:40:08;100759.09;;;16.24;67.66
36222;BME280;22266;52.340;4.962;2023-08-30T00:42:36;100751.19;;;16.22;67.38
36222;BME280;22266;52.340;4.962;2023-08-30T00:45:03;100752.47;;;16.20;67.48
36222;BME280;22266;52.340;4.962;2023-08-30T00:47:31;100751.66;;;16.19;67.80
36222;BME280;22266;52.340;4.962;2023-08-30T00:49:58;100745.41;;;16.19;67.73
36222;BME280;22266;52.340;4.962;2023-08-30T00:52:25;100756.25;;;16.19;67.59
36222;BME280;22266;52.340;4.962;2023-08-30T00:54:51;100748.72;;;16.21;67.85
36222;BME280;22266;52.340;4.962;2023-08-30T00:57:19;100745.66;;;16.17;67.45
36222;BME280;22266;52.340;4.962;2023-08-30T00:59:46;100741.50;;;16.15;67.63
36222;BME280;22266;52.340;4.962;2023-08-30T01:02:13;100743.38;;;16.14;67.79
36222;BME280;22266;52.340;4.962;2023-08-30T01:04:39;100736.06;;;16.15;67.34
36222;BME280;22266;52.340;4.962;2023-08-30T01:07:06;100725.19;;;16.15;67.47
36222;BME280;22266;52.340;4.962;2023-08-30T01:09:33;100730.16;;;16.06;67.28
36222;BME280;22266;52.340;4.962;2023-08-30T01:12:29;100735.13;;;16.09;67.55
36222;BME280;22266;52.340;4.962;2023-08-30T01:15:06;100720.22;;;16.12;67.71
36222;BME280;22266;52.340;4.962;2023-08-30T01:17:39;100722.94;;;16.12;67.60
36222;BME280;22266;52.340;4.962;2023-08-30T01:20:09;100721.91;;;16.13;67.52
36222;BME280;22266;52.340;4.962;2023-08-30T01:23:14;100718.69;;;16.16;67.27
36222;BME280;22266;52.340;4.962;2023-08-30T01:25:57;100718.94;;;16.14;67.35
36222;BME280;22266;52.340;4.962;2023-08-30T01:28:31;100715.88;;;16.11;67.37
36222;BME280;22266;52.340;4.962;2023-08-30T01:30:59;100709.25;;;16.06;67.29
36222;BME280;22266;52.340;4.962;2023-08-30T01:33:27;100718.00;;;16.09;67.67
36222;BME280;22266;52.340;4.962;2023-08-30T01:35:55;100717.75;;;16.10;67.44
36222;BME280;22266;52.340;4.962;2023-08-30T01:38:23;100723.66;;;16.07;67.56
36222;BME280;22266;52.340;4.962;2023-08-30T01:40:52;100720.13;;;16.06;67.79
36222;BME280;22266;52.340;4.962;2023-08-30T01:43:20;100720.72;;;16.09;67.82
36222;BME280;22266;52.340;4.962;2023-08-30T01:45:47;100723.66;;;16.07;67.94
36222;BME280;22266;52.340;4.962;2023-08-30T01:48:16;100710.41;;;15.99;67.92
36222;BME280;22266;52.340;4.962;2023-08-30T01:50:44;100707.94;;;15.97;68.00
36222;BME280;22266;52.340;4.962;2023-08-30T01:53:12;100708.66;;;15.93;68.26
36222;BME280;22266;52.340;4.962;2023-08-30T01:55:39;100702.97;;;15.94;67.97
36222;BME280;22266;52.340;4.962;2023-08-30T01:58:07;100703.91;;;16.00;68.08
36222;BME280;22266;52.340;4.962;2023-08-30T02:00:37;100704.53;;;16.02;68.06
36222;BME280;22266;52.340;4.962;2023-08-30T02:03:09;100697.31;;;15.96;68.15
36222;BME280;22266;52.340;4.962;2023-08-30T02:05:39;100697.53;;;15.94;68.47
36222;BME280;22266;52.340;4.962;2023-08-30T02:08:15;100693.53;;;15.97;68.43
36222;BME280;22266;52.340;4.962;2023-08-30T02:10:50;100692.72;;;15.96;68.37
36222;BME280;22266;52.340;4.962;2023-08-30T02:13:21;100698.16;;;15.96;68.13
36222;BME280;22266;52.340;4.962;2023-08-30T02:15:54;100685.88;;;15.94;68.30
36222;BME280;22266;52.340;4.962;2023-08-30T02:18:21;100683.16;;;15.94;68.19
36222;BME280;22266;52.340;4.962;2023-08-30T02:20:51;100684.22;;;15.93;68.50
36222;BME280;22266;52.340;4.962;2023-08-30T02:23:18;100682.53;;;15.92;68.14
36222;BME280;22266;52.340;4.962;2023-08-30T02:25:44;100682.53;;;15.92;68.81
36222;BME280;22266;52.340;4.962;2023-08-30T02:28:11;100680.69;;;15.92;68.73
36222;BME280;22266;52.340;4.962;2023-08-30T02:30:39;100680.69;;;15.92;68.39
36222;BME280;22266;52.340;4.962;2023-08-30T02:33:06;100675.81;;;15.94;68.22
36222;BME280;22266;52.340;4.962;2023-08-30T02:35:33;100677.59;;;15.89;68.25
36222;BME280;22266;52.340;4.962;2023-08-30T02:37:59;100674.88;;;15.89;68.87
36222;BME280;22266;52.340;4.962;2023-08-30T02:40:26;100673.56;;;15.91;69.05
36222;BME280;22266;52.340;4.962;2023-08-30T02:42:52;100669.56;;;15.94;68.75
36222;BME280;22266;52.340;4.962;2023-08-30T02:45:19;100670.41;;;15.94;68.58
36222;BME280;22266;52.340;4.962;2023-08-30T02:47:46;100668.75;;;15.93;68.87
36222;BME280;22266;52.340;4.962;2023-08-30T02:50:12;100659.16;;;15.91;68.78
36222;BME280;22266;52.340;4.962;2023-08-30T02:52:39;100655.06;;;15.88;68.90
36222;BME280;22266;52.340;4.962;2023-08-30T02:55:06;100652.81;;;15.85;69.00
36222;BME280;22266;52.340;4.962;2023-08-30T02:57:32;100650.66;;;15.87;69.12
36222;BME280;22266;52.340;4.962;2023-08-30T02:59:59;100646.06;;;15.88;69.05
36222;BME280;22266;52.340;4.962;2023-08-30T03:02:25;100633.91;;;15.90;69.16
36222;BME280;22266;52.340;4.962;2023-08-30T03:04:52;100636.38;;;15.92;68.91
36222;BME280;22266;52.340;4.962;2023-08-30T03:07:20;100641.81;;;15.92;69.32
36222;BME280;22266;52.340;4.962;2023-08-30T03:09:52;100636.16;;;15.93;69.27
36222;BME280;22266;52.340;4.962;2023-08-30T03:12:19;100630.38;;;15.90;68.91
36222;BME280;22266;52.340;4.962;2023-08-30T03:14:47;100633.09;;;15.90;69.38
36222;BME280;22266;52.340;4.962;2023-08-30T03:17:14;100631.44;;;15.89;69.20
36222;BME280;22266;52.340;4.962;2023-08-30T03:19:40;100624.34;;;15.88;69.28
36222;BME280;22266;52.340;4.962;2023-08-30T03:22:08;100623.53;;;15.87;69.47
36222;BME280;22266;52.340;4.962;2023-08-30T03:24:34;100613.38;;;15.82;69.14
36222;BME280;22266;52.340;4.962;2023-08-30T03:27:01;100614.91;;;15.78;69.74
36222;BME280;22266;52.340;4.962;2023-08-30T03:29:29;100611.63;;;15.76;69.58
36222;BME280;22266;52.340;4.962;2023-08-30T03:31:55;100609.59;;;15.72;69.41
36222;BME280;22266;52.340;4.962;2023-08-30T03:34:22;100607.09;;;15.70;69.64
36222;BME280;22266;52.340;4.962;2023-08-30T03:36:48;100602.13;;;15.67;69.85
36222;BME280;22266;52.340;4.962;2023-08-30T03:39:21;100601.41;;;15.60;70.10
36222;BME280;22266;52.340;4.962;2023-08-30T03:41:47;100597.63;;;15.61;69.72
36222;BME280;22266;52.340;4.962;2023-08-30T03:44:14;100593.47;;;15.58;69.74
36222;BME280;22266;52.340;4.962;2023-08-30T03:46:40;100586.16;;;15.59;70.09
36222;BME280;22266;52.340;4.962;2023-08-30T03:49:07;100584.63;;;15.63;69.84
36222;BME280;22266;52.340;4.962;2023-08-30T03:51:33;100581.50;;;15.66;69.66
36222;BME280;22266;52.340;4.962;2023-08-30T03:54:00;100588.81;;;15.66;69.83
36222;BME280;22266;52.340;4.962;2023-08-30T03:56:27;100587.75;;;15.67;69.63
36222;BME280;22266;52.340;4.962;2023-08-30T03:58:53;100578.56;;;15.68;69.48
36222;BME280;22266;52.340;4.962;2023-08-30T04:01:19;100575.16;;;15.72;69.51
36222;BME280;22266;52.340;4.962;2023-08-30T04:03:46;100577.03;;;15.72;69.41
36222;BME280;22266;52.340;4.962;2023-08-30T04:06:13;100581.50;;;15.66;69.49
36222;BME280;22266;52.340;4.962;2023-08-30T04:08:39;100584.22;;;15.66;69.58
36222;BME280;22266;52.340;4.962;2023-08-30T04:11:06;100582.41;;;15.60;69.59
36222;BME280;22266;52.340;4.962;2023-08-30T04:13:32;100593.84;;;15.62;69.78
36222;BME280;22266;52.340;4.962;2023-08-30T04:16:00;100588.88;;;15.59;69.87
36222;BME280;22266;52.340;4.962;2023-08-30T04:18:26;100591.38;;;15.61;69.46
36222;BME280;22266;52.340;4.962;2023-08-30T04:20:52;100586.78;;;15.61;69.43
36222;BME280;22266;52.340;4.962;2023-08-30T04:23:19;100583.44;;;15.59;69.46
36222;BME280;22266;52.340;4.962;2023-08-30T04:25:45;100578.84;;;15.59;69.73
36222;BME280;22266;52.340;4.962;2023-08-30T04:28:12;100581.22;;;15.56;69.66
36222;BME280;22266;52.340;4.962;2023-08-30T04:30:39;100582.41;;;15.60;69.44
36222;BME280;22266;52.340;4.962;2023-08-30T04:33:06;100575.91;;;15.61;69.13
36222;BME280;22266;52.340;4.962;2023-08-30T04:35:33;100564.94;;;15.56;69.12
36222;BME280;22266;52.340;4.962;2023-08-30T04:38:00;100566.47;;;15.52;69.09
36222;BME280;22266;52.340;4.962;2023-08-30T04:40:27;100566.47;;;15.52;69.14
36222;BME280;22266;52.340;4.962;2023-08-30T04:42:55;100547.25;;;15.53;69.11
36222;BME280;22266;52.340;4.962;2023-08-30T04:45:23;100553.50;;;15.54;68.62
36222;BME280;22266;52.340;4.962;2023-08-30T04:47:50;100545.34;;;15.54;68.91
36222;BME280;22266;52.340;4.962;2023-08-30T04:50:16;100541.00;;;15.53;68.68
36222;BME280;22266;52.340;4.962;2023-08-30T04:52:43;100538.16;;;15.48;68.77
36222;BME280;22266;52.340;4.962;2023-08-30T04:55:10;100537.91;;;15.49;68.73
36222;BME280;22266;52.340;4.962;2023-08-30T04:57:37;100534.75;;;15.52;68.73
36222;BME280;22266;52.340;4.962;2023-08-30T05:00:04;100535.09;;;15.56;68.56
36222;BME280;22266;52.340;4.962;2023-08-30T05:02:31;100524.25;;;15.56;68.33
36222;BME280;22266;52.340;4.962;2023-08-30T05:05:03;100531.22;;;15.52;68.14
36222;BME280;22266;52.340;4.962;2023-08-30T05:07:30;100529.78;;;15.49;68.12
36222;BME280;22266;52.340;4.962;2023-08-30T05:09:56;100535.47;;;15.48;68.32
36222;BME280;22266;52.340;4.962;2023-08-30T05:12:22;100534.38;;;15.49;68.08
36222;BME280;22266;52.340;4.962;2023-08-30T05:14:49;100541.00;;;15.53;68.57
36222;BME280;22266;52.340;4.962;2023-08-30T05:17:16;100538.28;;;15.53;68.07
36222;BME280;22266;52.340;4.962;2023-08-30T05:19:43;100542.28;;;15.50;68.26
36222;BME280;22266;52.340;4.962;2023-08-30T05:22:10;100540.38;;;15.51;68.57
36222;BME280;22266;52.340;4.962;2023-08-30T05:24:36;100553.50;;;15.54;68.30
36222;BME280;22266;52.340;4.962;2023-08-30T05:27:03;100552.56;;;15.48;68.08
36222;BME280;22266;52.340;4.962;2023-08-30T05:29:37;100554.53;;;15.41;67.46
36222;BME280;22266;52.340;4.962;2023-08-30T05:32:04;100556.19;;;15.42;67.64
36222;BME280;22266;52.340;4.962;2023-08-30T05:35:06;100548.88;;;15.43;67.35
36222;BME280;22266;52.340;4.962;2023-08-30T05:37:48;100544.06;;;15.45;67.28
36222;BME280;22266;52.340;4.962;2023-08-30T05:40:24;100543.22;;;15.44;67.14
36222;BME280;22266;52.340;4.962;2023-08-30T05:42:51;100534.94;;;15.39;66.78
36222;BME280;22266;52.340;4.962;2023-08-30T05:45:21;100539.34;;;15.40;66.84
36222;BME280;22266;52.340;4.962;2023-08-30T05:47:48;100530.84;;;15.37;66.88
36222;BME280;22266;52.340;4.962;2023-08-30T05:50:14;100534.63;;;15.36;67.14
36222;BME280;22266;52.340;4.962;2023-08-30T05:52:41;100531.38;;;15.27;67.09
36222;BME280;22266;52.340;4.962;2023-08-30T05:55:08;100527.72;;;15.21;67.27
36222;BME280;22266;52.340;4.962;2023-08-30T05:57:35;100530.53;;;15.15;67.98
36222;BME280;22266;52.340;4.962;2023-08-30T06:00:03;100528.88;;;15.14;68.57
36222;BME280;22266;52.340;4.962;2023-08-30T06:02:39;100531.59;;;15.14;68.59
36222;BME280;22266;52.340;4.962;2023-08-30T06:05:07;100537.84;;;15.14;69.24
36222;BME280;22266;52.340;4.962;2023-08-30T06:07:33;100528.88;;;15.14;69.53
36222;BME280;22266;52.340;4.962;2023-08-30T06:10:00;100523.47;;;15.14;69.71
36222;BME280;22266;52.340;4.962;2023-08-30T06:12:26;100523.25;;;15.15;70.30
36222;BME280;22266;52.340;4.962;2023-08-30T06:14:53;100531.84;;;15.12;70.90
36222;BME280;22266;52.340;4.962;2023-08-30T06:17:19;100527.34;;;15.06;71.07
36222;BME280;22266;52.340;4.962;2023-08-30T06:19:46;100515.53;;;15.00;71.88
36222;BME280;22266;52.340;4.962;2023-08-30T06:22:13;100517.44;;;15.00;72.67
36222;BME280;22266;52.340;4.962;2023-08-30T06:24:39;100512.91;;;14.94;72.88
36222;BME280;22266;52.340;4.962;2023-08-30T06:27:06;100506.09;;;14.91;73.65
36222;BME280;22266;52.340;4.962;2023-08-30T06:29:32;100509.84;;;14.90;73.69
36222;BME280;22266;52.340;4.962;2023-08-30T06:31:59;100505.94;;;14.86;74.07
36222;BME280;22266;52.340;4.962;2023-08-30T06:34:25;100502.41;;;14.86;74.66
36222;BME280;22266;52.340;4.962;2023-08-30T06:36:52;100498.41;;;14.88;75.34
36222;BME280;22266;52.340;4.962;2023-08-30T06:39:18;100500.31;;;14.88;75.26
36222;BME280;22266;52.340;4.962;2023-08-30T06:41:45;100483.22;;;14.87;75.99
36222;BME280;22266;52.340;4.962;2023-08-30T06:44:13;100488.00;;;14.73;76.78
36222;BME280;22266;52.340;4.962;2023-08-30T06:46:39;100488.34;;;14.77;77.18
36222;BME280;22266;52.340;4.962;2023-08-30T06:49:06;100476.25;;;14.79;77.38
36222;BME280;22266;52.340;4.962;2023-08-30T06:51:35;100464.78;;;14.77;77.20
36222;BME280;22266;52.340;4.962;2023-08-30T06:54:02;100464.78;;;14.77;77.64
36222;BME280;22266;52.340;4.962;2023-08-30T06:56:28;100460.19;;;14.78;78.06
36222;BME280;22266;52.340;4.962;2023-08-30T06:58:55;100458.78;;;14.75;78.13
36222;BME280;22266;52.340;4.962;2023-08-30T07:01:21;100461.50;;;14.75;78.47
36222;BME280;22266;52.340;4.962;2023-08-30T07:03:48;100472.09;;;14.77;78.60
36222;BME280;22266;52.340;4.962;2023-08-30T07:06:14;100472.72;;;14.79;78.87
36222;BME280;22266;52.340;4.962;2023-08-30T07:08:41;100470.00;;;14.79;79.24
36222;BME280;22266;52.340;4.962;2023-08-30T07:11:07;100468.47;;;14.83;79.18
36222;BME280;22266;52.340;4.962;2023-08-30T07:13:53;100459.16;;;14.79;79.51
36222;BME280;22266;52.340;4.962;2023-08-30T07:16:19;100459.38;;;14.77;79.91
36222;BME280;22266;52.340;4.962;2023-08-30T07:18:46;100462.69;;;14.79;79.97
36222;BME280;22266;52.340;4.962;2023-08-30T07:21:12;100452.56;;;14.75;80.12
36222;BME280;22266;52.340;4.962;2023-08-30T07:23:39;100453.25;;;14.82;80.52
36222;BME280;22266;52.340;4.962;2023-08-30T07:26:05;100450.09;;;14.85;80.49
36222;BME280;22266;52.340;4.962;2023-08-30T07:28:32;100451.97;;;14.84;80.80
36222;BME280;22266;52.340;4.962;2023-08-30T07:31:05;100451.53;;;14.88;80.67
36222;BME280;22266;52.340;4.962;2023-08-30T07:33:32;100445.63;;;14.91;81.13
36222;BME280;22266;52.340;4.962;2023-08-30T07:35:59;100436.66;;;14.90;81.25
36222;BME280;22266;52.340;4.962;2023-08-30T07:38:25;100443.53;;;14.93;81.60
36222;BME280;22266;52.340;4.962;2023-08-30T07:40:53;100429.72;;;14.94;81.58
36222;BME280;22266;52.340;4.962;2023-08-30T07:43:19;100435.28;;;14.99;81.74
36222;BME280;22266;52.340;4.962;2023-08-30T07:45:47;100429.63;;;15.01;81.53
36222;BME280;22266;52.340;4.962;2023-08-30T07:48:13;100427.97;;;15.00;82.12
36222;BME280;22266;52.340;4.962;2023-08-30T07:50:40;100428.56;;;15.02;82.16
36222;BME280;22266;52.340;4.962;2023-08-30T07:53:06;100432.94;;;15.03;82.29
36222;BME280;22266;52.340;4.962;2023-08-30T07:55:33;100427.38;;;14.98;82.17
36222;BME280;22266;52.340;4.962;2023-08-30T07:58:00;100438.09;;;14.93;82.17
36222;BME280;22266;52.340;4.962;2023-08-30T08:00:26;100432.06;;;14.91;82.68
36222;BME280;22266;52.340;4.962;2023-08-30T08:02:53;100429.97;;;14.93;83.08
36222;BME280;22266;52.340;4.962;2023-08-30T08:05:19;100429.25;;;14.97;83.13
36222;BME280;22266;52.340;4.962;2023-08-30T08:07:51;100429.50;;;14.96;82.80
36222;BME280;22266;52.340;4.962;2023-08-30T08:10:18;100418.53;;;14.91;82.91
36222;BME280;22266;52.340;4.962;2023-08-30T08:12:44;100428.69;;;14.95;83.11
36222;BME280;22266;52.340;4.962;2023-08-30T08:15:11;100430.69;;;15.00;83.67
36222;BME280;22266;52.340;4.962;2023-08-30T08:17:37;100418.53;;;15.02;83.14
36222;BME280;22266;52.340;4.962;2023-08-30T08:20:04;100426.56;;;14.97;83.09
36222;BME280;22266;52.340;4.962;2023-08-30T08:22:31;100427.63;;;14.96;83.34
36222;BME280;22266;52.340;4.962;2023-08-30T08:24:58;100420.31;;;14.97;83.31
36222;BME280;22266;52.340;4.962;2023-08-30T08:27:25;100423.38;;;15.00;84.01
36222;BME280;22266;52.340;4.962;2023-08-30T08:29:51;100416.31;;;14.99;84.03
36222;BME280;22266;52.340;4.962;2023-08-30T08:32:18;100416.19;;;15.06;83.88
36222;BME280;22266;52.340;4.962;2023-08-30T08:34:44;100411.47;;;15.01;84.08
36222;BME280;22266;52.340;4.962;2023-08-30T08:37:11;100414.78;;;15.03;84.06
36222;BME280;22266;52.340;4.962;2023-08-30T08:39:38;100415.63;;;15.04;83.97
36222;BME280;22266;52.340;4.962;2023-08-30T08:42:04;100410.56;;;15.07;84.01
36222;BME280;22266;52.340;4.962;2023-08-30T08:44:32;100414.31;;;15.06;83.94
36222;BME280;22266;52.340;4.962;2023-08-30T08:46:59;100404.31;;;15.07;84.23
36222;BME280;22266;52.340;4.962;2023-08-30T08:49:26;100408.06;;;15.06;84.22
36222;BME280;22266;52.340;4.962;2023-08-30T08:51:55;100405.13;;;15.07;84.23
36222;BME280;22266;52.340;4.962;2023-08-30T08:54:23;100401.09;;;15.10;84.08
36222;BME280;22266;52.340;4.962;2023-08-30T08:56:49;100411.94;;;15.10;84.09
36222;BME280;22266;52.340;4.962;2023-08-30T08:59:16;100403.00;;;15.09;84.07
36222;BME280;22266;52.340;4.962;2023-08-30T09:01:42;100405.72;;;15.09;84.00
36222;BME280;22266;52.340;4.962;2023-08-30T09:04:11;100410.06;;;15.11;84.24
36222;BME280;22266;52.340;4.962;2023-08-30T09:06:38;100408.88;;;15.06;84.01
36222;BME280;22266;52.340;4.962;2023-08-30T09:09:10;100413.03;;;15.09;84.20
36222;BME280;22266;52.340;4.962;2023-08-30T09:11:37;100412.56;;;15.12;84.33
36222;BME280;22266;52.340;4.962;2023-08-30T09:14:17;100416.34;;;15.11;84.07
36222;BME280;22266;52.340;4.962;2023-08-30T09:16:58;100410.56;;;15.07;83.88
36222;BME280;22266;52.340;4.962;2023-08-30T09:19:25;100410.75;;;15.06;84.56
36222;BME280;22266;52.340;4.962;2023-08-30T09:21:55;100414.66;;;15.10;84.66
36222;BME280;22266;52.340;4.962;2023-08-30T09:24:22;100412.78;;;15.11;84.47
36222;BME280;22266;52.340;4.962;2023-08-30T09:26:50;100411.94;;;15.10;84.59
36222;BME280;22266;52.340;4.962;2023-08-30T09:29:18;100414.09;;;15.08;84.56
36222;BME280;22266;52.340;4.962;2023-08-30T09:31:45;100418.69;;;15.07;84.92
36222;BME280;22266;52.340;4.962;2023-08-30T09:34:12;100430.34;;;15.08;85.07
36222;BME280;22266;52.340;4.962;2023-08-30T09:36:40;100421.59;;;15.06;84.93
36222;BME280;22266;52.340;4.962;2023-08-30T09:39:08;100426.56;;;15.09;85.46
36222;BME280;22266;52.340;4.962;2023-08-30T09:41:43;100418.56;;;15.14;85.35
36222;BME280;22266;52.340;4.962;2023-08-30T09:46:44;100417.50;;;15.27;85.44
36222;BME280;22266;52.340;4.962;2023-08-30T09:49:20;100411.38;;;15.31;85.73
36222;BME280;22266;52.340;4.962;2023-08-30T09:51:48;100402.53;;;15.36;85.08
36222;BME280;22266;52.340;4.962;2023-08-30T09:54:18;100409.16;;;15.40;85.13
36222;BME280;22266;52.340;4.962;2023-08-30T09:57:05;100405.47;;;15.46;85.13
36222;BME280;22266;52.340;4.962;2023-08-30T09:59:32;100408.53;;;15.50;84.82
36222;BME280;22266;52.340;4.962;2023-08-30T10:01:59;100405.56;;;15.51;84.55
36222;BME280;22266;52.340;4.962;2023-08-30T10:04:29;100405.34;;;15.53;85.05
36222;BME280;22266;52.340;4.962;2023-08-30T10:06:56;100411.94;;;15.57;84.81
36222;BME280;22266;52.340;4.962;2023-08-30T10:09:26;100412.88;;;15.63;84.24
36222;BME280;22266;52.340;4.962;2023-08-30T10:11:57;100411.63;;;15.65;84.14
36222;BME280;22266;52.340;4.962;2023-08-30T10:14:24;100409.47;;;15.67;84.05
36222;BME280;22266;52.340;4.962;2023-08-30T10:16:51;100413.03;;;15.68;84.16
36222;BME280;22266;52.340;4.962;2023-08-30T10:19:24;100416.09;;;15.71;83.62
36222;BME280;22266;52.340;4.962;2023-08-30T10:22:04;100415.03;;;15.72;83.70
36222;BME280;22266;52.340;4.962;2023-08-30T10:24:54;100416.78;;;15.78;83.68
36222;BME280;22266;52.340;4.962;2023-08-30T10:27:39;100424.47;;;15.81;83.58
36222;BME280;22266;52.340;4.962;2023-08-30T10:30:08;100415.34;;;15.88;84.02
36222;BME280;22266;52.340;4.962;2023-08-30T10:32:40;100414.97;;;15.96;84.17
36222;BME280;22266;52.340;4.962;2023-08-30T10:35:06;100416.81;;;16.07;83.86
36222;BME280;22266;52.340;4.962;2023-08-30T10:37:36;100415.53;;;16.10;83.41
36222;BME280;22266;52.340;4.962;2023-08-30T10:40:03;100429.09;;;16.10;83.26
36222;BME280;22266;52.340;4.962;2023-08-30T10:42:30;100430.06;;;16.03;82.51
36222;BME280;22266;52.340;4.962;2023-08-30T10:44:59;100421.81;;;15.98;82.74
36222;BME280;22266;52.340;4.962;2023-08-30T10:47:29;100425.94;;;16.01;82.46
36222;BME280;22266;52.340;4.962;2023-08-30T10:49:58;100421.34;;;16.01;82.62
36222;BME280;22266;52.340;4.962;2023-08-30T10:52:27;100427.69;;;16.07;82.49
36222;BME280;22266;52.340;4.962;2023-08-30T10:55:11;100419.25;;;16.20;82.26
36222;BME280;22266;52.340;4.962;2023-08-30T10:57:41;100421.72;;;16.34;82.63
36222;BME280;22266;52.340;4.962;2023-08-30T11:02:45;100421.00;;;16.55;82.19
36222;BME280;22266;52.340;4.962;2023-08-30T11:05:12;100433.53;;;16.56;81.33
36222;BME280;22266;52.340;4.962;2023-08-30T11:07:39;100429.06;;;16.50;80.27
36222;BME280;22266;52.340;4.962;2023-08-30T11:10:06;100430.28;;;16.42;79.21
36222;BME280;22266;52.340;4.962;2023-08-30T11:12:33;100430.03;;;16.44;78.99
36222;BME280;22266;52.340;4.962;2023-08-30T11:15:00;100432.34;;;16.52;78.45
36222;BME280;22266;52.340;4.962;2023-08-30T11:17:27;100424.22;;;16.52;77.05
36222;BME280;22266;52.340;4.962;2023-08-30T11:19:58;100432.97;;;16.54;75.54
36222;BME280;22266;52.340;4.962;2023-08-30T11:22:31;100428.28;;;16.66;75.54
36222;BME280;22266;52.340;4.962;2023-08-30T11:24:58;100436.41;;;16.78;75.12
36222;BME280;22266;52.340;4.962;2023-08-30T11:27:25;100436.34;;;16.90;75.21
36222;BME280;22266;52.340;4.962;2023-08-30T11:29:51;100432.69;;;17.01;74.10
36222;BME280;22266;52.340;4.962;2023-08-30T11:32:19;100451.31;;;17.09;73.95
36222;BME280;22266;52.340;4.962;2023-08-30T11:34:55;100447.38;;;17.17;72.73
36222;BME280;22266;52.340;4.962;2023-08-30T11:37:22;100452.34;;;17.20;71.66
36222;BME280;22266;52.340;4.962;2023-08-30T11:39:52;100442.94;;;17.27;71.99
36222;BME280;22266;52.340;4.962;2023-08-30T11:42:19;100448.38;;;17.27;70.73
36222;BME280;22266;52.340;4.962;2023-08-30T11:44:45;100451.97;;;17.33;70.10
36222;BME280;22266;52.340;4.962;2023-08-30T11:47:18;100442.09;;;17.44;70.01
36222;BME280;22266;52.340;4.962;2023-08-30T11:49:47;100451.47;;;17.53;69.60
36222;BME280;22266;52.340;4.962;2023-08-30T11:52:14;100448.09;;;17.63;70.06
36222;BME280;22266;52.340;4.962;2023-08-30T11:54:41;100453.94;;;17.71;69.76
36222;BME280;22266;52.340;4.962;2023-08-30T11:57:08;100450.13;;;17.72;68.29
36222;BME280;22266;52.340;4.962;2023-08-30T11:59:35;100458.03;;;17.74;68.17
36222;BME280;22266;52.340;4.962;2023-08-30T12:02:03;100455.00;;;17.70;67.95
36222;BME280;22266;52.340;4.962;2023-08-30T12:04:39;100452.28;;;17.70;68.36
36222;BME280;22266;52.340;4.962;2023-08-30T12:07:06;100461.50;;;17.69;68.22
36222;BME280;22266;52.340;4.962;2023-08-30T12:09:33;100454.91;;;17.65;67.24
36222;BME280;22266;52.340;4.962;2023-08-30T12:12:10;100455.84;;;17.54;65.79
36222;BME280;22266;52.340;4.962;2023-08-30T12:14:39;100460.31;;;17.43;65.73
36222;BME280;22266;52.340;4.962;2023-08-30T12:17:06;100462.38;;;17.36;65.79
36222;BME280;22266;52.340;4.962;2023-08-30T12:19:34;100461.88;;;17.39;66.19
36222;BME280;22266;52.340;4.962;2023-08-30T12:22:04;100473.09;;;17.43;65.80
36222;BME280;22266;52.340;4.962;2023-08-30T12:24:44;100469.38;;;17.49;65.19
36222;BME280;22266;52.340;4.962;2023-08-30T12:27:11;100474.47;;;17.45;64.91
36222;BME280;22266;52.340;4.962;2023-08-30T12:29:37;100472.03;;;17.44;65.32
36222;BME280;22266;52.340;4.962;2023-08-30T12:32:04;100471.69;;;17.40;64.62
36222;BME280;22266;52.340;4.962;2023-08-30T12:34:31;100467.34;;;17.39;64.53
36222;BME280;22266;52.340;4.962;2023-08-30T12:36:57;100478.53;;;17.43;64.81
36222;BME280;22266;52.340;4.962;2023-08-30T12:39:29;100476.06;;;17.41;64.10
36222;BME280;22266;52.340;4.962;2023-08-30T12:41:56;100478.28;;;17.44;64.07
36222;BME280;22266;52.340;4.962;2023-08-30T12:44:23;100467.66;;;17.43;63.68
36222;BME280;22266;52.340;4.962;2023-08-30T12:46:49;100475.00;;;17.42;62.70
36222;BME280;22266;52.340;4.962;2023-08-30T12:49:16;100478.53;;;17.43;62.52
36222;BME280;22266;52.340;4.962;2023-08-30T12:51:42;100478.03;;;17.46;62.21
36222;BME280;22266;52.340;4.962;2023-08-30T12:54:08;100474.81;;;17.49;62.10
36222;BME280;22266;52.340;4.962;2023-08-30T12:56:35;100481.06;;;17.49;62.17
36222;BME280;22266;52.340;4.962;2023-08-30T12:59:01;100486.34;;;17.56;63.28
36222;BME280;22266;52.340;4.962;2023-08-30T13:01:28;100484.72;;;17.55;63.44